Disclaimer

Please do not use the information listed here in-flight or in-navigation, as they are not provided to us by the airports but are provided by volunteers, so they might be outdated.

Search


Regions


Airport information page

Radio informations:
Tower (TWR) - 121.35 MHz
Approach (APP) - 121.35 MHz

Airport informations:
Latitude: 49° 04' 24.94" N
Longitude: 020° 14' 28.11" E
Elevation: 2356 feet - 718 meters
Operating hours: Remarks
Operating agency: Civil government, landing fees and diplomatic clearance may be required
Timezone: UTC+1(+2DT)
Fuel: N/A

Runway information:
09/27 - 8530 x 148 feet< - >2600 x 45 meters

Recent METARs:
LZTT 161030Z VRB02KT 9999 FEW010 BKN070 M07/M09 Q1015 NOSIG
LZTT 161100Z VRB01KT 9999 FEW010 M05/M07 Q1015 NOSIG
LZTT 161130Z VRB01KT 9999 FEW013 M06/M09 Q1015 NOSIG

Airport on the map: